createdAt,value
2022-11-25T00:01:07.293Z,3.53
2022-11-25T00:03:34.502Z,3.45
2022-11-25T00:06:14.319Z,3.15
2022-11-25T00:08:42.709Z,3.10
2022-11-25T00:11:10.163Z,2.90
2022-11-25T00:13:37.655Z,4.03
2022-11-25T00:16:09.985Z,4.60
2022-11-25T00:18:36.958Z,3.67
2022-11-25T00:21:12.477Z,3.70
2022-11-25T00:23:39.115Z,3.53
2022-11-25T00:26:10.926Z,3.85
2022-11-25T00:28:38.106Z,3.42
2022-11-25T00:31:09.557Z,4.25
2022-11-25T00:33:36.969Z,4.13
2022-11-25T00:36:13.936Z,3.53
2022-11-25T00:38:40.651Z,5.30
2022-11-25T00:41:07.244Z,3.50
2022-11-25T00:43:33.841Z,4.35
2022-11-25T00:46:00.435Z,4.25
2022-11-25T00:48:26.975Z,5.47
2022-11-25T00:50:53.528Z,3.72
2022-11-25T00:53:20.008Z,3.40
2022-11-25T00:55:46.549Z,3.67
2022-11-25T00:58:13.021Z,7.00
2022-11-25T01:00:39.642Z,4.43
2022-11-25T01:03:06.146Z,4.25
2022-11-25T01:05:32.675Z,3.33
2022-11-25T01:07:59.187Z,4.05
2022-11-25T01:10:25.739Z,3.88
2022-11-25T01:12:52.288Z,3.50
2022-11-25T01:15:18.888Z,4.20
2022-11-25T01:17:47.055Z,5.53
2022-11-25T01:20:16.427Z,3.20
2022-11-25T01:22:42.922Z,3.28
2022-11-25T01:25:09.394Z,4.47
2022-11-25T01:27:35.934Z,4.50
2022-11-25T01:30:02.490Z,3.92
2022-11-25T01:32:28.994Z,3.45
2022-11-25T01:34:55.520Z,5.07
2022-11-25T01:37:23.710Z,4.65
2022-11-25T01:39:50.185Z,4.88
2022-11-25T01:42:17.843Z,4.03
2022-11-25T01:44:44.405Z,3.70
2022-11-25T01:47:20.506Z,3.90
2022-11-25T01:50:02.310Z,3.55
2022-11-25T01:52:38.004Z,3.58
2022-11-25T01:55:15.410Z,3.03
2022-11-25T01:57:48.481Z,3.55
2022-11-25T02:00:15.869Z,4.38
2022-11-25T02:02:47.728Z,3.42
2022-11-25T02:05:19.116Z,3.10
2022-11-25T02:07:49.465Z,3.70
2022-11-25T02:10:22.073Z,3.10
2022-11-25T02:12:49.231Z,3.38
2022-11-25T02:15:16.622Z,4.70
2022-11-25T02:17:44.431Z,3.42
2022-11-25T02:20:16.407Z,3.00
2022-11-25T02:23:04.654Z,3.72
2022-11-25T02:25:34.691Z,3.35
2022-11-25T02:28:08.601Z,3.10
2022-11-25T02:30:37.470Z,4.10
2022-11-25T02:33:04.593Z,3.35
2022-11-25T02:36:06.863Z,3.50
2022-11-25T02:38:42.751Z,4.28
2022-11-25T02:41:30.779Z,2.97
2022-11-25T02:44:01.390Z,2.80
2022-11-25T02:46:29.083Z,3.08
2022-11-25T02:49:12.989Z,3.25
2022-11-25T02:51:44.459Z,3.92
2022-11-25T02:54:15.494Z,4.13
2022-11-25T02:56:42.168Z,3.72
2022-11-25T02:59:09.518Z,3.35
2022-11-25T03:01:37.003Z,3.80
2022-11-25T03:04:06.364Z,4.03
2022-11-25T03:06:33.387Z,3.65
2022-11-25T03:08:59.988Z,3.92
2022-11-25T03:11:27.632Z,3.75
2022-11-25T03:13:54.212Z,3.20
2022-11-25T03:16:20.803Z,2.72
2022-11-25T03:18:47.471Z,4.60
2022-11-25T03:21:15.397Z,3.40
2022-11-25T03:23:41.872Z,3.92
2022-11-25T03:26:08.358Z,2.78
2022-11-25T03:28:34.891Z,3.83
2022-11-25T03:31:01.481Z,5.10
2022-11-25T03:33:28.699Z,3.17
2022-11-25T03:35:55.879Z,2.67
2022-11-25T03:38:22.415Z,3.80
2022-11-25T03:40:48.937Z,4.35
2022-11-25T03:43:15.970Z,3.53
2022-11-25T03:45:42.600Z,3.70
2022-11-25T03:48:09.436Z,2.88
2022-11-25T03:50:37.157Z,4.93
2022-11-25T03:53:03.621Z,3.40
2022-11-25T03:55:30.211Z,4.00
2022-11-25T03:57:56.862Z,3.22
2022-11-25T04:00:25.342Z,4.45
2022-11-25T04:02:59.202Z,3.00
2022-11-25T04:05:25.767Z,2.80
2022-11-25T04:07:58.081Z,5.45
2022-11-25T04:10:26.465Z,3.17
2022-11-25T04:12:54.375Z,3.28
2022-11-25T04:15:35.804Z,3.28
2022-11-25T04:18:02.670Z,4.10
2022-11-25T04:20:31.358Z,3.10
2022-11-25T04:25:29.718Z,5.30
2022-11-25T04:27:56.568Z,4.15
2022-11-25T04:30:29.764Z,2.92
2022-11-25T04:32:56.468Z,4.57
2022-11-25T04:35:23.215Z,3.92
2022-11-25T04:37:54.178Z,3.15
2022-11-25T04:40:22.080Z,3.58
2022-11-25T04:43:02.418Z,3.53
2022-11-25T04:45:51.571Z,3.58
2022-11-25T04:48:18.383Z,3.88
2022-11-25T04:50:45.678Z,3.85
2022-11-25T04:53:13.823Z,4.30
2022-11-25T04:55:40.650Z,4.15
2022-11-25T04:58:12.504Z,4.38
2022-11-25T05:00:40.725Z,3.55
2022-11-25T05:03:09.355Z,3.30
2022-11-25T05:05:38.579Z,3.88
2022-11-25T05:08:05.591Z,4.50
2022-11-25T05:10:32.741Z,4.30
2022-11-25T05:12:59.546Z,4.28
2022-11-25T05:15:26.247Z,4.55
2022-11-25T05:17:53.865Z,5.25
2022-11-25T05:20:34.908Z,4.13
2022-11-25T05:23:02.588Z,3.83
2022-11-25T05:25:30.039Z,3.67
2022-11-25T05:28:15.113Z,4.20
2022-11-25T05:30:42.810Z,3.55
2022-11-25T05:33:09.564Z,3.33
2022-11-25T05:35:36.121Z,3.00
2022-11-25T05:38:02.982Z,3.80
2022-11-25T05:40:31.257Z,5.07
2022-11-25T05:43:03.198Z,3.72
2022-11-25T05:45:31.200Z,4.47
2022-11-25T05:47:58.243Z,4.10
2022-11-25T05:50:27.268Z,4.00
2022-11-25T05:53:04.649Z,4.10
2022-11-25T05:55:32.900Z,4.60
2022-11-25T05:58:03.360Z,4.47
2022-11-25T06:00:30.147Z,6.00
2022-11-25T06:03:01.623Z,4.57
2022-11-25T06:05:28.346Z,5.70
2022-11-25T06:07:54.994Z,5.32
2022-11-25T06:10:22.429Z,4.53
2022-11-25T06:12:50.208Z,5.72
2022-11-25T06:15:17.037Z,6.90
2022-11-25T06:17:43.792Z,5.50
2022-11-25T06:20:16.898Z,4.13
2022-11-25T06:22:43.470Z,3.72
2022-11-25T06:25:10.048Z,4.95
2022-11-25T06:28:10.675Z,3.78
2022-11-25T06:30:27.512Z,3.58
2022-11-25T06:33:08.299Z,4.35
2022-11-25T06:35:36.171Z,4.32
2022-11-25T06:38:03.103Z,3.83
2022-11-25T06:40:29.646Z,2.85
2022-11-25T06:42:56.149Z,3.15
2022-11-25T06:45:22.717Z,3.47
2022-11-25T06:47:49.229Z,3.92
2022-11-25T06:50:15.892Z,4.13
2022-11-25T06:52:42.366Z,4.35
2022-11-25T06:55:09.115Z,3.80
2022-11-25T06:57:35.569Z,4.22
2022-11-25T07:00:02.270Z,4.88
2022-11-25T07:02:28.740Z,3.85
2022-11-25T07:04:55.293Z,4.68
2022-11-25T07:07:21.902Z,4.07
2022-11-25T07:09:48.568Z,3.20
2022-11-25T07:12:15.099Z,3.50
2022-11-25T07:14:41.726Z,3.42
2022-11-25T07:17:12.128Z,3.95
2022-11-25T07:19:39.450Z,2.60
2022-11-25T07:22:05.941Z,3.22
2022-11-25T07:24:32.558Z,3.53
2022-11-25T07:26:59.077Z,2.83
2022-11-25T07:32:12.332Z,3.83
2022-11-25T07:34:41.894Z,3.97
2022-11-25T07:37:08.522Z,3.28
2022-11-25T07:39:35.388Z,2.92
2022-11-25T07:42:10.374Z,2.58
2022-11-25T07:44:36.987Z,5.40
2022-11-25T07:47:29.791Z,3.60
2022-11-25T07:49:56.333Z,4.07
2022-11-25T07:52:22.797Z,5.45
2022-11-25T07:54:49.342Z,2.85
2022-11-25T07:57:16.147Z,3.08
2022-11-25T07:59:42.909Z,3.20
2022-11-25T08:02:10.287Z,3.42
2022-11-25T08:04:37.584Z,4.03
2022-11-25T08:07:04.051Z,2.92
2022-11-25T08:09:30.701Z,4.63
2022-11-25T08:11:57.205Z,3.13
2022-11-25T08:14:23.794Z,2.95
2022-11-25T08:16:50.275Z,2.85
2022-11-25T08:19:17.730Z,3.35
2022-11-25T08:21:44.975Z,2.78
2022-11-25T08:24:20.355Z,3.70
2022-11-25T08:26:47.199Z,2.30
2022-11-25T08:29:15.799Z,2.85
2022-11-25T08:31:42.821Z,3.35
2022-11-25T08:34:16.049Z,3.47
2022-11-25T08:36:47.928Z,3.58
2022-11-25T08:39:36.412Z,3.72
2022-11-25T08:42:06.139Z,3.10
2022-11-25T08:44:32.970Z,2.42
2022-11-25T08:46:59.716Z,4.10
2022-11-25T08:49:26.871Z,2.88
2022-11-25T08:51:53.381Z,3.25
2022-11-25T08:54:19.953Z,2.90
2022-11-25T08:56:46.488Z,3.15
2022-11-25T08:59:13.085Z,3.05
2022-11-25T09:01:39.714Z,2.97
2022-11-25T09:04:06.366Z,3.83
2022-11-25T09:06:32.831Z,3.53
2022-11-25T09:08:59.928Z,2.65
2022-11-25T09:11:27.642Z,2.95
2022-11-25T09:13:54.565Z,2.38
2022-11-25T09:16:21.196Z,2.88
2022-11-25T09:18:53.955Z,3.30
2022-11-25T09:21:20.757Z,4.55
2022-11-25T09:23:50.465Z,5.10
2022-11-25T09:26:28.918Z,3.67
2022-11-25T09:28:56.638Z,3.38
2022-11-25T09:31:23.726Z,3.53
2022-11-25T09:33:50.562Z,3.67
2022-11-25T09:36:18.830Z,3.05
2022-11-25T09:38:45.857Z,2.60
2022-11-25T09:41:27.574Z,3.58
2022-11-25T09:46:42.192Z,2.60
2022-11-25T09:49:18.033Z,2.20
2022-11-25T09:52:03.981Z,2.70
2022-11-25T09:54:38.560Z,2.83
2022-11-25T09:57:36.297Z,2.67
2022-11-25T10:00:10.673Z,3.08
2022-11-25T10:03:11.854Z,2.90
2022-11-25T10:05:55.183Z,2.17
2022-11-25T10:08:28.370Z,3.20
2022-11-25T10:11:18.743Z,3.88
2022-11-25T10:13:51.744Z,2.95
2022-11-25T10:16:52.261Z,3.58
2022-11-25T10:19:41.918Z,1.85
2022-11-25T10:22:23.497Z,2.50
2022-11-25T10:27:55.203Z,2.42
2022-11-25T10:30:24.886Z,3.22
2022-11-25T10:32:56.523Z,2.17
2022-11-25T10:36:03.494Z,2.72
2022-11-25T10:38:45.123Z,2.97
2022-11-25T10:43:43.257Z,2.55
2022-11-25T10:46:57.050Z,2.80
2022-11-25T10:49:35.732Z,2.33
2022-11-25T10:52:02.572Z,3.17
2022-11-25T10:54:29.258Z,1.75
2022-11-25T10:56:59.290Z,2.85
2022-11-25T10:59:37.813Z,2.20
2022-11-25T11:02:40.821Z,1.90
2022-11-25T11:05:09.933Z,2.42
2022-11-25T11:07:39.716Z,2.55
2022-11-25T11:10:16.933Z,3.50
2022-11-25T11:13:25.634Z,1.95
2022-11-25T11:15:54.084Z,2.40
2022-11-25T11:18:20.546Z,2.83
2022-11-25T11:20:50.321Z,2.50
2022-11-25T11:23:17.772Z,2.20
2022-11-25T11:25:58.103Z,2.17
2022-11-25T11:28:27.582Z,1.90
2022-11-25T11:31:05.505Z,2.65
2022-11-25T11:33:37.257Z,1.90
2022-11-25T11:36:42.737Z,2.53
2022-11-25T11:39:27.823Z,2.20
2022-11-25T11:42:25.807Z,3.42
2022-11-25T11:45:09.018Z,2.72
2022-11-25T11:47:50.940Z,2.00
2022-11-25T11:50:34.835Z,2.05
2022-11-25T11:53:20.504Z,2.08
2022-11-25T11:56:18.980Z,2.50
2022-11-25T11:59:03.916Z,2.22
2022-11-25T12:01:39.450Z,2.78
2022-11-25T12:04:20.962Z,2.42
2022-11-25T12:07:12.286Z,2.28
2022-11-25T12:09:48.704Z,1.90
2022-11-25T12:12:18.729Z,2.00
2022-11-25T12:15:00.836Z,2.47
2022-11-25T12:17:34.381Z,2.17
2022-11-25T12:20:00.865Z,4.15
2022-11-25T12:22:37.528Z,3.45
2022-11-25T12:25:16.028Z,3.85
2022-11-25T12:27:47.691Z,1.92
2022-11-25T12:30:20.609Z,2.63
2022-11-25T12:32:56.233Z,2.42
2022-11-25T12:35:47.634Z,2.97
2022-11-25T12:38:36.205Z,2.65
2022-11-25T12:41:25.100Z,2.95
2022-11-25T12:44:02.046Z,2.35
2022-11-25T12:46:34.754Z,1.98
2022-11-25T12:49:02.047Z,3.00
2022-11-25T12:51:28.412Z,2.72
2022-11-25T12:54:23.802Z,2.70
2022-11-25T12:57:18.517Z,1.92
2022-11-25T13:00:40.312Z,2.03
2022-11-25T13:03:31.637Z,2.38
2022-11-25T13:06:12.366Z,3.63
2022-11-25T13:08:57.663Z,2.55
2022-11-25T13:12:04.734Z,2.95
2022-11-25T13:15:02.384Z,2.38
2022-11-25T13:17:34.428Z,2.10
2022-11-25T13:20:29.031Z,2.42
2022-11-25T13:23:04.781Z,2.33
2022-11-25T13:25:32.782Z,2.53
2022-11-25T13:28:01.672Z,2.42
2022-11-25T13:30:34.441Z,2.03
2022-11-25T13:33:23.828Z,2.00
2022-11-25T13:35:54.942Z,2.47
2022-11-25T13:38:30.239Z,3.00
2022-11-25T13:40:59.080Z,1.95
2022-11-25T13:43:25.990Z,2.35
2022-11-25T13:45:53.031Z,2.30
2022-11-25T13:48:32.025Z,2.35
2022-11-25T13:51:25.330Z,2.50
2022-11-25T13:53:55.612Z,2.72
2022-11-25T13:56:36.337Z,2.70
2022-11-25T13:59:12.101Z,2.53
2022-11-25T14:01:42.017Z,2.33
2022-11-25T14:04:10.823Z,2.78
2022-11-25T14:06:47.861Z,2.60
2022-11-25T14:09:21.096Z,2.50
2022-11-25T14:12:09.388Z,2.45
2022-11-25T14:14:57.237Z,3.10
2022-11-25T14:17:42.186Z,2.50
2022-11-25T14:20:34.628Z,2.05
2022-11-25T14:23:35.465Z,2.95
2022-11-25T14:26:26.687Z,2.80
2022-11-25T14:29:20.990Z,2.75
2022-11-25T14:34:30.240Z,2.83
2022-11-25T14:37:11.122Z,2.33
2022-11-25T14:39:50.519Z,2.60
2022-11-25T14:42:21.027Z,2.20
2022-11-25T14:44:52.225Z,2.35
2022-11-25T14:47:23.844Z,2.22
2022-11-25T14:52:38.549Z,2.60
2022-11-25T14:55:06.565Z,2.40
2022-11-25T14:57:36.065Z,2.75
2022-11-25T15:00:07.309Z,2.30
2022-11-25T15:02:35.833Z,2.92
2022-11-25T15:05:15.768Z,2.80
2022-11-25T15:07:46.234Z,2.13
2022-11-25T15:10:38.279Z,1.90
2022-11-25T15:13:22.293Z,2.90
2022-11-25T15:15:50.095Z,2.55
2022-11-25T15:18:23.841Z,2.63
2022-11-25T15:20:56.679Z,2.17
2022-11-25T15:23:41.338Z,2.67
2022-11-25T15:26:29.307Z,2.72
2022-11-25T15:28:57.847Z,2.70
2022-11-25T15:31:33.788Z,2.83
2022-11-25T15:34:03.708Z,2.28
2022-11-25T15:36:30.692Z,2.72
2022-11-25T15:39:13.194Z,3.65
2022-11-25T15:41:42.453Z,2.58
2022-11-25T15:44:19.561Z,2.58
2022-11-25T15:46:57.847Z,3.10
2022-11-25T15:49:25.337Z,3.15
2022-11-25T15:52:14.878Z,2.78
2022-11-25T15:54:48.168Z,2.53
2022-11-25T15:57:19.046Z,2.30
2022-11-25T15:59:50.063Z,2.10
2022-11-25T16:02:48.083Z,2.92
2022-11-25T16:05:14.743Z,2.30
2022-11-25T16:07:57.850Z,2.78
2022-11-25T16:10:43.242Z,2.33
2022-11-25T16:13:22.788Z,2.15
2022-11-25T16:16:07.949Z,2.80
2022-11-25T16:18:56.209Z,2.95
2022-11-25T16:21:26.168Z,3.67
2022-11-25T16:23:58.781Z,2.28
2022-11-25T16:26:29.589Z,3.60
2022-11-25T16:28:58.916Z,3.42
2022-11-25T16:31:26.427Z,2.95
2022-11-25T16:34:01.176Z,3.30
2022-11-25T16:36:27.663Z,3.47
2022-11-25T16:38:54.257Z,3.55
2022-11-25T16:41:24.712Z,3.25
2022-11-25T16:43:51.593Z,3.53
2022-11-25T16:46:19.851Z,3.58
2022-11-25T16:48:47.175Z,5.35
2022-11-25T16:51:26.843Z,5.40
2022-11-25T16:53:53.359Z,3.58
2022-11-25T16:56:29.533Z,4.18
2022-11-25T16:58:57.705Z,3.40
2022-11-25T17:01:27.449Z,3.78
2022-11-25T17:03:54.226Z,4.00
2022-11-25T17:06:24.000Z,3.97
2022-11-25T17:08:50.995Z,4.85
2022-11-25T17:11:28.088Z,4.70
2022-11-25T17:13:56.177Z,5.70
2022-11-25T17:16:26.767Z,4.43
2022-11-25T17:18:56.011Z,3.80
2022-11-25T17:21:23.301Z,3.90
2022-11-25T17:23:53.820Z,3.65
2022-11-25T17:26:31.450Z,4.13
2022-11-25T17:29:00.039Z,3.85
2022-11-25T17:31:29.659Z,3.00
2022-11-25T17:33:56.239Z,3.97
2022-11-25T17:36:22.974Z,3.30
2022-11-25T17:38:49.699Z,3.05
2022-11-25T17:41:18.079Z,3.72
2022-11-25T17:43:47.807Z,3.42
2022-11-25T17:46:16.440Z,3.58
2022-11-25T17:48:43.637Z,3.90
2022-11-25T17:51:11.526Z,4.22
2022-11-25T17:53:38.838Z,4.88
2022-11-25T17:56:25.046Z,7.15
2022-11-25T17:58:52.697Z,5.78
2022-11-25T18:01:24.310Z,5.45
2022-11-25T18:06:17.260Z,5.47
2022-11-25T18:08:43.844Z,3.67
2022-11-25T18:11:16.898Z,4.70
2022-11-25T18:13:45.815Z,4.35
2022-11-25T18:16:14.647Z,4.53
2022-11-25T18:18:41.236Z,4.13
2022-11-25T18:21:09.307Z,4.63
2022-11-25T18:23:35.764Z,5.35
2022-11-25T18:26:02.468Z,3.78
2022-11-25T18:28:31.799Z,5.10
2022-11-25T18:31:02.388Z,4.32
2022-11-25T18:33:29.822Z,4.28
2022-11-25T18:35:56.365Z,4.15
2022-11-25T18:38:23.183Z,4.57
2022-11-25T18:40:53.489Z,3.78
2022-11-25T18:43:23.122Z,4.63
2022-11-25T18:45:49.782Z,5.03
2022-11-25T18:48:20.051Z,4.10
2022-11-25T18:50:48.325Z,4.57
2022-11-25T18:53:14.927Z,4.85
2022-11-25T18:55:41.670Z,5.03
2022-11-25T18:58:27.022Z,6.07
2022-11-25T19:00:57.979Z,7.35
2022-11-25T19:03:25.627Z,3.70
2022-11-25T19:05:53.039Z,5.55
2022-11-25T19:08:20.186Z,5.60
2022-11-25T19:10:48.535Z,4.88
2022-11-25T19:13:20.658Z,6.50
2022-11-25T19:15:48.315Z,5.72
2022-11-25T19:18:27.923Z,6.35
2022-11-25T19:20:55.607Z,5.20
2022-11-25T19:23:25.572Z,5.70
2022-11-25T19:25:54.288Z,8.10
2022-11-25T19:28:21.753Z,7.60
2022-11-25T19:30:48.331Z,7.63
2022-11-25T19:33:36.553Z,6.45
2022-11-25T19:36:03.993Z,5.53
2022-11-25T19:38:30.811Z,7.07
2022-11-25T19:40:57.707Z,5.50
2022-11-25T19:43:25.248Z,5.28
2022-11-25T19:45:51.987Z,6.43
2022-11-25T19:48:20.601Z,5.93
2022-11-25T19:50:50.417Z,6.05
2022-11-25T19:53:20.235Z,5.30
2022-11-25T19:55:47.756Z,6.10
2022-11-25T19:58:14.964Z,5.97
2022-11-25T20:00:43.026Z,5.80
2022-11-25T20:03:20.591Z,4.38
2022-11-25T20:05:47.140Z,6.18
2022-11-25T20:08:19.275Z,4.30
2022-11-25T20:10:46.052Z,7.38
2022-11-25T20:13:12.533Z,4.45
2022-11-25T20:15:40.559Z,4.20
2022-11-25T20:18:07.606Z,4.22
2022-11-25T20:20:37.174Z,4.18
2022-11-25T20:23:13.488Z,4.40
2022-11-25T20:25:46.206Z,4.70
2022-11-25T20:28:18.463Z,4.28
2022-11-25T20:30:45.872Z,5.45
2022-11-25T20:33:12.948Z,4.50
2022-11-25T20:35:41.403Z,4.70
2022-11-25T20:38:16.728Z,4.82
2022-11-25T20:40:44.799Z,3.35
2022-11-25T20:43:23.452Z,7.47
2022-11-25T20:45:50.880Z,4.45
2022-11-25T20:48:17.518Z,4.38
2022-11-25T20:50:44.190Z,5.95
2022-11-25T20:53:17.848Z,4.93
2022-11-25T20:55:45.853Z,4.65
2022-11-25T20:58:22.927Z,4.40
2022-11-25T21:00:55.648Z,3.90
2022-11-25T21:03:24.855Z,4.47
2022-11-25T21:05:52.734Z,4.50
2022-11-25T21:08:29.820Z,4.78
2022-11-25T21:10:58.435Z,4.70
2022-11-25T21:13:28.425Z,4.50
2022-11-25T21:15:55.409Z,5.45
2022-11-25T21:18:22.471Z,4.60
2022-11-25T21:20:51.621Z,4.00
2022-11-25T21:23:24.575Z,5.53
2022-11-25T21:25:51.408Z,4.68
2022-11-25T21:28:21.096Z,4.47
2022-11-25T21:30:47.999Z,5.00
2022-11-25T21:33:15.291Z,5.07
2022-11-25T21:35:45.365Z,4.93
2022-11-25T21:38:17.582Z,4.88
2022-11-25T21:40:49.905Z,5.43
2022-11-25T21:43:33.742Z,5.53
2022-11-25T21:46:03.261Z,4.50
2022-11-25T21:48:30.573Z,5.07
2022-11-25T21:50:57.400Z,5.50
2022-11-25T21:53:24.301Z,4.50
2022-11-25T21:55:51.023Z,4.90
2022-11-25T21:58:26.154Z,5.13
2022-11-25T22:00:58.514Z,4.80
2022-11-25T22:03:27.317Z,4.97
2022-11-25T22:05:53.781Z,5.00
2022-11-25T22:08:20.336Z,5.60
2022-11-25T22:10:50.020Z,5.47
2022-11-25T22:13:22.180Z,5.57
2022-11-25T22:15:54.096Z,4.95
2022-11-25T22:18:30.019Z,4.93
2022-11-25T22:20:56.586Z,6.93
2022-11-25T22:23:23.365Z,5.60
2022-11-25T22:25:50.851Z,5.13
2022-11-25T22:28:28.578Z,5.25
2022-11-25T22:30:58.151Z,5.05
2022-11-25T22:33:33.522Z,4.55
2022-11-25T22:36:00.884Z,5.13
2022-11-25T22:38:29.323Z,4.47
2022-11-25T22:41:00.040Z,5.38
2022-11-25T22:43:34.113Z,4.65
2022-11-25T22:46:01.574Z,5.05
2022-11-25T22:48:36.188Z,5.22
2022-11-25T22:51:03.275Z,4.88
2022-11-25T22:53:30.221Z,5.88
2022-11-25T22:55:57.355Z,5.35
2022-11-25T22:58:25.802Z,4.65
2022-11-25T23:00:52.899Z,5.90
2022-11-25T23:03:29.550Z,7.82
2022-11-25T23:05:56.819Z,6.47
2022-11-25T23:08:26.438Z,5.53
2022-11-25T23:10:54.827Z,5.55
2022-11-25T23:13:21.636Z,5.97
2022-11-25T23:15:54.528Z,4.10
2022-11-25T23:18:36.788Z,5.03
2022-11-25T23:21:06.649Z,5.80
2022-11-25T23:23:33.174Z,5.57
2022-11-25T23:25:59.746Z,5.28
2022-11-25T23:28:26.227Z,5.07
2022-11-25T23:30:55.974Z,4.65
2022-11-25T23:33:31.195Z,5.85
2022-11-25T23:35:58.864Z,5.38
2022-11-25T23:38:27.771Z,3.92
2022-11-25T23:40:54.759Z,5.15
2022-11-25T23:43:21.407Z,4.63
2022-11-25T23:45:52.904Z,4.75
2022-11-25T23:48:24.684Z,5.32
2022-11-25T23:53:24.900Z,4.57
2022-11-25T23:55:51.692Z,4.07
2022-11-25T23:58:20.511Z,5.78
